METAR Data
IDs: Format: Raw Decoded Include TAF

Data at: 2125 UTC 01 Oct 2022

METAR for:KGUC (Gunnison Arpt, CO, US)
Text:KGUC 012056Z AUTO 02007KT 10SM -RA BKN055 OVC075 12/04 A3026 RMK AO2 RAB49 SLP202 P0000 60000 T01220044 53004
Temperature: 12.2°C ( 54°F)
Dewpoint: 4.4°C ( 40°F) [RH = 59%]
Pressure (altimeter):30.26 inches Hg (1024.8 mb) [Sea level pressure: 1020.2 mb]
Winds:from the NNE (20 degrees) at 8 MPH (7 knots; 3.6 m/s)
Visibility:10 or more sm (16+ km)
Ceiling:5500 feet AGL
Clouds: broken clouds at 5500 feet AGL, overcast cloud deck at 7500 feet AGL
Weather:-RA (light rain)
QC Flag:automated observation with no human augmentation